Aérodrome :
LOGIN :

S'inscrire | Disclaimer

   EN    FR    IT 

 










Légende :    VFR   VFR Marginal   IFR   IFR Intensif   IFR Très Intensif
Visi : 
Plafond : 
>= 8 km
>= 3000ft
5 à 8 km
1000 à 3000 ft
1500m à 5 km
500 à 1000 ft
800 à 1500m
200 à 500 ft
< 800m
< 200 ft
Symboles :   Orages  Brouillard  Fortes neiges  Fortes précipitations  Vent > 20 kt
SIGMETs :   Divers  Orages  Givrage  Turbulence  Onde Orograph.  Cendres Volcan.







- Altitude de l'aérodrome : 194 ft


EBCV - Chièvres

DERNIER METAR :
  • 201125Z AUTO 05007KT 9999 NCD 20/11 Q1022 BLU

METARs EXPIRÉS :
  • 201114Z AUTO 05007KT 9999 NCD 19/10 Q1022 BLU
  • 201103Z AUTO 03008KT 7000 FEW240/// 18/11 Q1022 WHT
  • 201055Z AUTO 04006KT 9999 FEW240/// 19/11 Q1022 BLU
  • 201025Z AUTO 04006KT 7000 NCD 18/11 Q1022 WHT
  • 201016Z AUTO 01007KT 4600 NCD 17/11 Q1022 GRN
  • 200955Z AUTO 02006KT 7000 NCD 16/11 Q1023 WHT
  • 200949Z AUTO 03006KT 6000 NCD 16/11 Q1023 WHT
  • 200937Z AUTO 03006KT 4900 NCD 16/12 Q1023 GRN
  • 200925Z AUTO 03005KT 5000 NCD 15/11 Q1023 WHT
  • 200855Z AUTO 01005KT 4000 BR FEW220/// 14/10 Q1023 GRN
  • 200851Z AUTO 01004KT 4600 BR FEW220/// 14/11 Q1023 GRN

TAF TAF EBCV
Valide du 20 à 07h jusqu'au 20 à 16h UTC


200904Z 2007/2016 05005KT 5000 BR SCT008
BECMG 2010/2012 9999 SCT025 BY EBWM
Pas de NOTAMs connus pour ce terrain.



MET'MAP, la Météo Aéronautique d'un coup d'oeil ! - Copyright ORBIFLY Décembre 2007 - Disclaimer

ORBIFLY MET'MAP TEAM :

Programmation & Développement : Alexandra Zaïnal
Conception & Développement : Baudouin d'Aumeries
Co-Programmation & Développement : Marc-Olivier Méhu
Soutien technique & logistique : Manuel Goepfert

Contact : metmap@orbifly.com




SOURCES & CREDITS :

   NOAA